createdAt,value
2018-08-24T00:01:35.549Z,95724.36
2018-08-24T00:04:08.273Z,95723.55
2018-08-24T00:06:38.077Z,95716.81
2018-08-24T00:09:12.576Z,95713.39
2018-08-24T00:11:41.354Z,95714.89
2018-08-24T00:14:10.997Z,95711.56
2018-08-24T00:16:40.779Z,95705.39
2018-08-24T00:19:15.432Z,95704.95
2018-08-24T00:21:44.617Z,95710.54
2018-08-24T00:24:13.888Z,95706.50
2018-08-24T00:26:42.448Z,95704.56
2018-08-24T00:29:11.420Z,95699.41
2018-08-24T00:31:40.486Z,95697.22
2018-08-24T00:34:09.043Z,95698.20
2018-08-24T00:36:37.655Z,95700.72
2018-08-24T00:39:08.108Z,95699.78
2018-08-24T00:41:36.950Z,95699.61
2018-08-24T00:44:05.589Z,95695.97
2018-08-24T00:46:34.160Z,95701.48
2018-08-24T00:49:02.893Z,95706.02
2018-08-24T00:51:31.503Z,95704.15
2018-08-24T00:54:00.064Z,95705.13
2018-08-24T00:56:28.823Z,95706.85
2018-08-24T00:58:57.375Z,95704.91
2018-08-24T01:01:26.059Z,95704.91
2018-08-24T01:03:54.603Z,95702.22
2018-08-24T01:06:23.132Z,95705.17
2018-08-24T01:08:51.825Z,95704.14
2018-08-24T01:11:20.472Z,95702.42
2018-08-24T01:13:51.651Z,95698.29
2018-08-24T01:16:25.668Z,95696.67
2018-08-24T01:18:54.269Z,95697.78
2018-08-24T01:21:22.839Z,95700.55
2018-08-24T01:23:51.676Z,95705.88
2018-08-24T01:26:22.819Z,95706.69
2018-08-24T01:28:52.806Z,95702.35
2018-08-24T01:31:22.293Z,95700.91
2018-08-24T01:33:50.839Z,95706.88
2018-08-24T01:36:19.409Z,95709.39
2018-08-24T01:38:47.976Z,95704.56
2018-08-24T01:41:16.552Z,95703.78
2018-08-24T01:43:45.120Z,95704.17
2018-08-24T01:46:15.047Z,95701.18
2018-08-24T01:48:43.660Z,95707.50
2018-08-24T01:51:12.263Z,95699.91
2018-08-24T01:53:40.988Z,95703.00
2018-08-24T01:56:09.572Z,95703.39
2018-08-24T01:58:38.129Z,95702.38
2018-08-24T02:01:06.703Z,95706.52
2018-08-24T02:03:35.484Z,95710.11
2018-08-24T02:06:08.080Z,95709.09
2018-08-24T02:08:37.732Z,95707.95
2018-08-24T02:11:10.899Z,95703.03
2018-08-24T02:13:45.913Z,95702.37
2018-08-24T02:16:14.600Z,95691.70
2018-08-24T02:18:48.275Z,95694.83
2018-08-24T02:21:21.928Z,95698.20
2018-08-24T02:23:50.464Z,95694.11
2018-08-24T02:26:18.999Z,95693.06
2018-08-24T02:28:47.551Z,95692.59
2018-08-24T02:31:16.159Z,95684.80
2018-08-24T02:33:44.673Z,95685.67
2018-08-24T02:36:13.413Z,95684.61
2018-08-24T02:38:41.940Z,95683.69
2018-08-24T02:41:10.507Z,95679.73
2018-08-24T02:43:39.045Z,95680.58
2018-08-24T02:46:07.666Z,95680.49
2018-08-24T02:48:36.209Z,95676.52
2018-08-24T02:51:04.872Z,95676.04
2018-08-24T02:53:33.481Z,95671.02
2018-08-24T02:56:02.185Z,95678.47
2018-08-24T02:58:30.716Z,95670.72
2018-08-24T03:00:59.335Z,95669.13
2018-08-24T03:03:27.892Z,95668.50
2018-08-24T03:05:56.443Z,95670.25
2018-08-24T03:08:25.090Z,95669.81
2018-08-24T03:10:53.550Z,95671.12
2018-08-24T03:13:22.157Z,95670.53
2018-08-24T03:15:50.692Z,95671.89
2018-08-24T03:18:19.244Z,95665.36
2018-08-24T03:20:47.828Z,95670.33
2018-08-24T03:23:16.459Z,95677.26
2018-08-24T03:25:44.993Z,95679.62
2018-08-24T03:28:13.542Z,95682.95
2018-08-24T03:30:42.230Z,95675.91
2018-08-24T03:33:10.812Z,95667.53
2018-08-24T03:35:42.428Z,95673.63
2018-08-24T03:38:11.051Z,95677.33
2018-08-24T03:40:39.584Z,95681.52
2018-08-24T03:43:08.140Z,95684.54
2018-08-24T03:45:36.959Z,95686.89
2018-08-24T03:48:06.383Z,95687.89
2018-08-24T03:50:35.253Z,95691.38
2018-08-24T03:53:04.693Z,95690.32
2018-08-24T03:55:37.280Z,95695.33
2018-08-24T03:58:07.265Z,95691.23
2018-08-24T04:00:37.781Z,95690.30
2018-08-24T04:03:06.351Z,95687.70
2018-08-24T04:05:34.905Z,95686.22
2018-08-24T04:08:03.463Z,95684.13
2018-08-24T04:10:32.026Z,95679.09
2018-08-24T04:13:00.619Z,95675.09
2018-08-24T04:15:29.368Z,95672.98
2018-08-24T04:17:57.917Z,95668.16
2018-08-24T04:20:26.458Z,95666.97
2018-08-24T04:22:55.042Z,95667.72
2018-08-24T04:25:23.608Z,95675.75
2018-08-24T04:27:52.152Z,95673.76
2018-08-24T04:30:20.692Z,95678.95
2018-08-24T04:32:49.256Z,95668.39
2018-08-24T04:35:17.817Z,95666.88
2018-08-24T04:37:46.403Z,95667.66
2018-08-24T04:40:15.000Z,95665.55
2018-08-24T04:42:43.562Z,95673.17
2018-08-24T04:45:12.161Z,95672.63
2018-08-24T04:47:40.700Z,95679.86
2018-08-24T04:50:09.249Z,95684.14
2018-08-24T04:52:37.896Z,95688.53
2018-08-24T04:55:06.455Z,95687.80
2018-08-24T04:57:34.990Z,95686.37
2018-08-24T05:00:03.585Z,95689.45
2018-08-24T05:02:32.119Z,95688.23
2018-08-24T05:05:00.688Z,95683.27
2018-08-24T05:07:29.210Z,95688.75
2018-08-24T05:09:57.767Z,95677.76
2018-08-24T05:13:00.928Z,95679.78
2018-08-24T05:15:29.489Z,95682.05
2018-08-24T05:17:58.087Z,95682.53
2018-08-24T05:20:26.634Z,95681.09
2018-08-24T05:22:55.178Z,95683.67
2018-08-24T05:25:23.751Z,95685.93
2018-08-24T05:27:52.284Z,95685.29
2018-08-24T05:30:20.834Z,95680.58
2018-08-24T05:32:50.210Z,95682.52
2018-08-24T05:42:04.844Z,95683.83
2018-08-24T05:48:05.825Z,95692.77
2018-08-24T05:55:03.124Z,95694.95
2018-08-24T05:57:31.673Z,95693.27
2018-08-24T06:04:02.539Z,95689.19
2018-08-24T06:06:31.127Z,95687.16
2018-08-24T06:09:04.891Z,95688.93
2018-08-24T06:11:33.421Z,95693.21
2018-08-24T06:14:01.986Z,95685.94
2018-08-24T06:16:30.556Z,95688.62
2018-08-24T06:18:59.129Z,95686.70
2018-08-24T06:21:27.676Z,95690.73
2018-08-24T06:23:56.220Z,95690.73
2018-08-24T06:26:24.809Z,95692.66
2018-08-24T06:28:53.349Z,95691.75
2018-08-24T06:31:21.900Z,95693.95
2018-08-24T06:33:50.473Z,95701.18
2018-08-24T06:36:19.052Z,95701.06
2018-08-24T06:38:47.636Z,95706.61
2018-08-24T06:41:16.208Z,95700.57
2018-08-24T06:43:44.748Z,95698.54
2018-08-24T06:46:13.311Z,95700.56
2018-08-24T06:48:41.848Z,95701.47
2018-08-24T06:51:10.400Z,95704.97
2018-08-24T06:53:38.990Z,95708.19
2018-08-24T06:56:07.525Z,95701.34
2018-08-24T06:58:36.076Z,95712.03
2018-08-24T07:01:04.652Z,95709.22
2018-08-24T07:03:33.262Z,95712.92
2018-08-24T07:06:01.864Z,95718.45
2018-08-24T07:08:30.452Z,95719.64
2018-08-24T07:10:58.991Z,95723.88
2018-08-24T07:13:27.610Z,95722.17
2018-08-24T07:15:56.140Z,95723.48
2018-08-24T07:21:27.141Z,95717.33
2018-08-24T07:23:55.676Z,95720.84
2018-08-24T07:26:24.232Z,95726.47
2018-08-24T07:28:52.797Z,95736.02
2018-08-24T07:31:21.340Z,95734.42
2018-08-24T07:33:49.915Z,95737.35
2018-08-24T07:36:18.464Z,95740.66
2018-08-24T07:38:47.065Z,95740.16
2018-08-24T07:41:15.699Z,95737.94
2018-08-24T07:43:44.267Z,95737.58
2018-08-24T07:46:12.832Z,95735.55
2018-08-24T07:48:41.361Z,95737.31
2018-08-24T07:51:09.905Z,95735.89
2018-08-24T07:53:38.455Z,95729.02
2018-08-24T08:01:19.323Z,95718.03
2018-08-24T08:03:47.928Z,95720.44
2018-08-24T08:06:16.480Z,95731.23
2018-08-24T08:08:45.040Z,95728.10
2018-08-24T08:11:13.594Z,95734.83
2018-08-24T08:13:42.152Z,95729.26
2018-08-24T08:16:10.687Z,95735.42
2018-08-24T08:18:39.421Z,95727.88
2018-08-24T08:21:08.091Z,95726.95
2018-08-24T08:23:36.910Z,95722.95
2018-08-24T08:26:08.113Z,95724.17
2018-08-24T08:28:36.767Z,95731.47
2018-08-24T08:31:05.362Z,95730.85
2018-08-24T08:33:33.906Z,95733.16
2018-08-24T08:36:02.596Z,95734.50
2018-08-24T08:38:31.144Z,95734.81
2018-08-24T08:40:59.703Z,95726.56
2018-08-24T08:43:28.273Z,95736.91
2018-08-24T08:45:56.837Z,95733.20
2018-08-24T08:48:25.367Z,95738.83
2018-08-24T08:50:53.928Z,95740.36
2018-08-24T08:53:22.508Z,95742.77
2018-08-24T08:55:51.053Z,95743.33
2018-08-24T08:58:19.596Z,95747.52
2018-08-24T09:00:48.148Z,95743.92
2018-08-24T09:03:16.663Z,95748.59
2018-08-24T09:05:45.240Z,95755.22
2018-08-24T09:08:13.764Z,95757.84
2018-08-24T09:10:42.301Z,95756.03
2018-08-24T09:13:10.850Z,95754.87
2018-08-24T09:15:39.460Z,95756.19
2018-08-24T09:18:13.088Z,95758.63
2018-08-24T09:20:46.840Z,95755.44
2018-08-24T09:23:20.536Z,95756.56
2018-08-24T09:25:54.349Z,95751.78
2018-08-24T09:28:27.970Z,95753.66
2018-08-24T09:31:01.565Z,95757.88
2018-08-24T09:33:30.085Z,95760.02
2018-08-24T09:36:02.225Z,95756.75
2018-08-24T09:38:32.800Z,95752.91
2018-08-24T09:41:01.487Z,95751.29
2018-08-24T09:43:35.274Z,95744.80
2018-08-24T09:46:03.866Z,95748.02
2018-08-24T09:48:36.543Z,95739.12
2018-08-24T09:51:10.408Z,95736.38
2018-08-24T09:53:44.151Z,95734.13
2018-08-24T09:56:12.766Z,95737.27
2018-08-24T09:58:41.352Z,95727.32
2018-08-24T10:01:15.070Z,95731.08
2018-08-24T10:03:48.645Z,95724.61
2018-08-24T10:06:24.237Z,95727.38
2018-08-24T10:08:52.790Z,95729.88
2018-08-24T10:11:21.341Z,95724.55
2018-08-24T10:13:49.876Z,95724.91
2018-08-24T10:16:18.402Z,95723.97
2018-08-24T10:18:47.011Z,95722.23
2018-08-24T10:21:15.808Z,95717.91
2018-08-24T10:23:44.365Z,95720.33
2018-08-24T10:26:12.904Z,95711.85
2018-08-24T10:28:41.452Z,95709.89
2018-08-24T10:31:10.047Z,95713.31
2018-08-24T10:33:38.803Z,95708.58
2018-08-24T10:36:07.406Z,95713.91
2018-08-24T10:38:36.342Z,95712.22
2018-08-24T10:41:04.982Z,95705.95
2018-08-24T10:43:33.560Z,95707.31
2018-08-24T10:46:02.115Z,95713.10
2018-08-24T10:48:30.646Z,95707.34
2018-08-24T10:50:59.235Z,95706.77
2018-08-24T10:53:27.818Z,95703.34
2018-08-24T10:55:56.436Z,95705.00
2018-08-24T10:58:24.945Z,95700.00
2018-08-24T11:00:53.493Z,95696.27
2018-08-24T11:03:22.213Z,95700.05
2018-08-24T11:05:50.763Z,95696.43
2018-08-24T11:08:19.365Z,95684.91
2018-08-24T11:10:47.898Z,95681.19
2018-08-24T11:13:16.473Z,95679.44
2018-08-24T11:15:49.048Z,95685.55
2018-08-24T11:18:18.083Z,95683.28
2018-08-24T11:20:46.668Z,95679.57
2018-08-24T11:23:15.252Z,95683.86
2018-08-24T11:25:43.856Z,95681.49
2018-08-24T11:28:12.459Z,95685.02
2018-08-24T11:30:41.009Z,95694.51
2018-08-24T11:33:09.661Z,95681.11
2018-08-24T11:35:38.244Z,95689.70
2018-08-24T11:38:06.840Z,95691.38
2018-08-24T11:40:35.409Z,95692.24
2018-08-24T11:43:04.018Z,95688.61
2018-08-24T11:45:32.580Z,95689.63
2018-08-24T11:48:01.184Z,95683.65
2018-08-24T11:50:29.790Z,95682.09
2018-08-24T11:52:58.343Z,95678.38
2018-08-24T11:55:26.928Z,95680.65
2018-08-24T11:57:55.520Z,95677.75
2018-08-24T12:00:30.348Z,95681.75
2018-08-24T12:03:00.187Z,95671.47
2018-08-24T12:05:28.752Z,95668.38
2018-08-24T12:07:57.469Z,95668.41
2018-08-24T12:10:25.973Z,95666.41
2018-08-24T12:12:54.539Z,95659.55
2018-08-24T12:15:23.121Z,95658.73
2018-08-24T12:17:51.747Z,95657.61
2018-08-24T12:20:20.283Z,95645.98
2018-08-24T12:22:48.904Z,95644.57
2018-08-24T12:25:17.478Z,95637.66
2018-08-24T12:27:46.027Z,95628.84
2018-08-24T12:30:14.600Z,95633.89
2018-08-24T12:32:43.175Z,95622.91
2018-08-24T12:35:11.762Z,95613.29
2018-08-24T12:37:48.245Z,95605.02
2018-08-24T12:40:17.167Z,95596.56
2018-08-24T12:42:45.883Z,95590.43
2018-08-24T12:45:14.449Z,95588.50
2018-08-24T12:47:43.045Z,95584.22
2018-08-24T12:50:11.648Z,95582.38
2018-08-24T12:52:40.248Z,95577.48
2018-08-24T12:55:08.808Z,95580.42
2018-08-24T12:57:37.414Z,95581.52
2018-08-24T13:00:06.013Z,95572.91
2018-08-24T13:02:34.557Z,95582.34
2018-08-24T13:05:03.137Z,95577.77
2018-08-24T13:07:32.595Z,95589.75
2018-08-24T13:10:01.174Z,95578.36
2018-08-24T13:12:29.719Z,95579.37
2018-08-24T13:14:59.144Z,95578.28
2018-08-24T13:17:27.708Z,95573.34
2018-08-24T13:19:56.259Z,95566.24
2018-08-24T13:22:24.824Z,95571.84
2018-08-24T13:24:53.537Z,95564.54
2018-08-24T13:27:22.192Z,95569.36
2018-08-24T13:29:50.796Z,95561.25
2018-08-24T13:32:19.343Z,95570.13
2018-08-24T13:34:47.880Z,95567.34
2018-08-24T13:37:16.460Z,95559.05
2018-08-24T13:39:45.042Z,95562.27
2018-08-24T13:42:13.654Z,95569.95
2018-08-24T13:44:42.243Z,95579.22
2018-08-24T13:47:10.842Z,95575.51
2018-08-24T13:49:39.400Z,95571.95
2018-08-24T13:52:11.002Z,95573.92
2018-08-24T13:54:39.631Z,95571.95
2018-08-24T13:57:08.206Z,95567.58
2018-08-24T13:59:36.832Z,95565.05
2018-08-24T14:02:05.516Z,95561.00
2018-08-24T14:04:34.173Z,95554.99
2018-08-24T14:07:02.748Z,95540.93
2018-08-24T14:09:31.317Z,95544.48
2018-08-24T14:11:59.869Z,95551.08
2018-08-24T14:14:28.598Z,95547.58
2018-08-24T14:16:57.158Z,95544.80
2018-08-24T14:19:25.804Z,95537.73
2018-08-24T14:21:54.423Z,95539.05
2018-08-24T14:24:22.981Z,95541.44
2018-08-24T14:26:51.560Z,95537.58
2018-08-24T14:29:20.239Z,95536.51
2018-08-24T14:31:48.920Z,95537.73
2018-08-24T14:34:17.510Z,95531.62
2018-08-24T14:36:46.113Z,95537.34
2018-08-24T14:39:14.688Z,95531.33
2018-08-24T14:41:43.355Z,95534.35
2018-08-24T14:44:11.965Z,95535.02
2018-08-24T14:46:40.772Z,95537.23
2018-08-24T14:49:09.317Z,95538.30
2018-08-24T14:51:37.872Z,95533.42
2018-08-24T14:54:06.565Z,95534.83
2018-08-24T14:56:35.273Z,95534.03
2018-08-24T14:59:03.857Z,95538.53
2018-08-24T15:01:32.467Z,95535.56
2018-08-24T15:04:01.006Z,95538.27
2018-08-24T15:06:29.567Z,95539.52
2018-08-24T15:08:58.140Z,95543.03
2018-08-24T15:11:26.683Z,95546.81
2018-08-24T15:13:55.234Z,95538.91
2018-08-24T15:16:23.822Z,95548.08
2018-08-24T15:18:52.373Z,95548.69
2018-08-24T15:21:20.914Z,95548.31
2018-08-24T15:23:49.481Z,95547.00
2018-08-24T15:26:18.073Z,95547.42
2018-08-24T15:28:46.709Z,95544.84
2018-08-24T15:31:16.143Z,95548.99
2018-08-24T15:33:45.545Z,95549.66
2018-08-24T15:36:14.093Z,95546.91
2018-08-24T15:38:42.652Z,95548.56
2018-08-24T15:41:11.208Z,95550.41
2018-08-24T15:43:39.767Z,95544.33
2018-08-24T15:46:08.449Z,95537.92
2018-08-24T15:48:36.980Z,95539.15
2018-08-24T15:51:05.876Z,95554.31
2018-08-24T15:53:34.463Z,95552.08
2018-08-24T15:56:03.056Z,95555.36
2018-08-24T15:58:31.628Z,95557.67
2018-08-24T16:01:00.198Z,95556.55
2018-08-24T16:03:28.801Z,95554.69
2018-08-24T16:05:57.507Z,95560.66
2018-08-24T16:08:26.111Z,95552.15
2018-08-24T16:10:54.696Z,95555.51
2018-08-24T16:13:23.313Z,95548.56
2018-08-24T16:15:51.869Z,95555.70
2018-08-24T16:21:23.036Z,95563.16
2018-08-24T16:23:51.716Z,95565.41
2018-08-24T16:26:23.310Z,95565.72
2018-08-24T16:28:52.418Z,95571.27
2018-08-24T16:31:21.138Z,95570.56
2018-08-24T16:33:49.813Z,95573.72
2018-08-24T16:36:18.388Z,95568.22
2018-08-24T16:38:46.988Z,95568.98
2018-08-24T16:41:15.512Z,95573.70
2018-08-24T16:43:44.180Z,95573.52
2018-08-24T16:46:12.740Z,95572.35
2018-08-24T16:48:41.370Z,95578.89
2018-08-24T16:51:10.012Z,95579.34
2018-08-24T16:53:38.540Z,95583.41
2018-08-24T16:56:07.284Z,95578.48
2018-08-24T16:58:35.894Z,95576.08
2018-08-24T17:01:04.857Z,95578.20
2018-08-24T17:03:33.449Z,95578.48
2018-08-24T17:06:01.988Z,95581.91
2018-08-24T17:08:30.659Z,95582.77
2018-08-24T17:10:59.433Z,95579.06
2018-08-24T17:13:27.972Z,95583.50
2018-08-24T17:15:56.541Z,95591.37
2018-08-24T17:18:25.095Z,95588.30
2018-08-24T17:20:53.755Z,95588.73
2018-08-24T17:23:23.216Z,95596.09
2018-08-24T17:25:51.763Z,95590.26
2018-08-24T17:28:20.340Z,95600.88
2018-08-24T17:30:48.941Z,95598.47
2018-08-24T17:33:17.501Z,95601.17
2018-08-24T17:35:46.141Z,95601.61
2018-08-24T17:38:14.706Z,95604.95
2018-08-24T17:40:43.258Z,95605.81
2018-08-24T17:43:11.799Z,95606.84
2018-08-24T17:45:40.324Z,95608.88
2018-08-24T17:48:09.094Z,95612.06
2018-08-24T17:50:37.924Z,95612.63
2018-08-24T17:53:06.535Z,95620.86
2018-08-24T17:55:35.092Z,95622.11
2018-08-24T17:58:03.652Z,95632.56
2018-08-24T18:00:32.280Z,95627.91
2018-08-24T18:03:00.828Z,95629.06
2018-08-24T18:05:29.593Z,95626.70
2018-08-24T18:07:58.170Z,95631.19
2018-08-24T18:10:26.713Z,95630.97
2018-08-24T18:12:55.263Z,95630.37
2018-08-24T18:15:23.851Z,95639.97
2018-08-24T18:17:52.437Z,95635.64
2018-08-24T18:20:20.988Z,95641.47
2018-08-24T18:22:49.575Z,95649.14
2018-08-24T18:25:18.163Z,95644.34
2018-08-24T18:27:46.816Z,95653.00
2018-08-24T18:30:15.590Z,95647.65
2018-08-24T18:32:44.077Z,95651.48
2018-08-24T18:35:12.664Z,95651.98
2018-08-24T18:37:41.208Z,95652.53
2018-08-24T18:40:09.766Z,95652.97
2018-08-24T18:42:38.363Z,95654.06
2018-08-24T18:45:06.994Z,95654.97
2018-08-24T18:47:36.005Z,95660.27
2018-08-24T18:50:04.672Z,95656.30
2018-08-24T18:52:33.232Z,95659.88
2018-08-24T18:55:01.845Z,95656.30
2018-08-24T18:57:30.411Z,95665.11
2018-08-24T18:59:58.983Z,95662.17
2018-08-24T19:02:27.529Z,95667.45
2018-08-24T19:04:56.069Z,95670.08
2018-08-24T19:07:24.758Z,95682.06
2018-08-24T19:09:53.441Z,95673.11
2018-08-24T19:12:27.651Z,95689.94
2018-08-24T19:14:57.115Z,95684.70
2018-08-24T19:17:30.748Z,95683.30
2018-08-24T19:20:04.493Z,95683.28
2018-08-24T19:22:33.067Z,95680.89
2018-08-24T19:25:01.784Z,95670.44
2018-08-24T19:27:35.519Z,95667.83
2018-08-24T19:30:09.247Z,95672.65
2018-08-24T19:32:38.115Z,95671.64
2018-08-24T19:35:06.679Z,95671.86
2018-08-24T19:37:35.361Z,95674.85
2018-08-24T19:40:09.136Z,95678.76
2018-08-24T19:42:37.699Z,95678.34
2018-08-24T19:45:06.389Z,95681.58
2018-08-24T19:47:40.686Z,95681.88
2018-08-24T19:50:09.244Z,95677.55
2018-08-24T19:52:37.814Z,95677.86
2018-08-24T19:55:06.524Z,95675.25
2018-08-24T19:57:40.191Z,95677.67
2018-08-24T20:00:08.808Z,95675.84
2018-08-24T20:02:38.297Z,95677.95
2018-08-24T20:05:07.150Z,95674.04
2018-08-24T20:07:41.016Z,95670.93
2018-08-24T20:10:11.083Z,95671.75
2018-08-24T20:12:40.528Z,95671.75
2018-08-24T20:15:14.368Z,95669.64
2018-08-24T20:17:42.994Z,95667.39
2018-08-24T20:20:11.555Z,95670.82
2018-08-24T20:22:40.130Z,95679.37
2018-08-24T20:25:08.710Z,95676.17
2018-08-24T20:27:37.316Z,95674.66
2018-08-24T20:30:06.192Z,95677.67
2018-08-24T20:32:35.496Z,95676.66
2018-08-24T20:35:04.089Z,95670.23
2018-08-24T20:37:32.652Z,95672.64
2018-08-24T20:40:01.312Z,95677.17
2018-08-24T20:42:29.811Z,95684.20
2018-08-24T20:44:58.375Z,95675.78
2018-08-24T20:47:27.345Z,95678.50
2018-08-24T20:49:55.845Z,95676.88
2018-08-24T20:52:24.399Z,95683.31
2018-08-24T20:54:52.981Z,95678.87
2018-08-24T20:57:21.567Z,95678.59
2018-08-24T20:59:50.343Z,95681.36
2018-08-24T21:02:18.961Z,95682.47
2018-08-24T21:04:47.544Z,95684.34
2018-08-24T21:07:16.109Z,95683.73
2018-08-24T21:09:44.653Z,95680.71
2018-08-24T21:12:13.422Z,95684.41
2018-08-24T21:14:42.040Z,95686.63
2018-08-24T21:17:10.740Z,95687.72
2018-08-24T21:19:39.320Z,95686.60
2018-08-24T21:22:07.872Z,95691.41
2018-08-24T21:24:36.497Z,95694.10
2018-08-24T21:27:05.367Z,95690.39
2018-08-24T21:29:34.305Z,95691.20
2018-08-24T21:32:03.154Z,95696.91
2018-08-24T21:34:31.696Z,95699.16
2018-08-24T21:37:01.352Z,95692.28
2018-08-24T21:39:30.801Z,95696.80
2018-08-24T21:41:59.609Z,95691.73
2018-08-24T21:44:28.219Z,95693.66
2018-08-24T21:46:56.808Z,95689.67
2018-08-24T21:49:25.356Z,95693.58
2018-08-24T21:51:53.976Z,95690.44
2018-08-24T21:54:22.520Z,95686.65
2018-08-24T21:56:51.101Z,95686.73
2018-08-24T21:59:19.702Z,95686.16
2018-08-24T22:01:48.305Z,95688.05
2018-08-24T22:04:16.941Z,95693.88
2018-08-24T22:06:46.150Z,95697.69
2018-08-24T22:09:14.799Z,95693.78
2018-08-24T22:11:43.674Z,95692.16
2018-08-24T22:14:12.280Z,95695.58
2018-08-24T22:16:41.138Z,95692.05
2018-08-24T22:22:13.489Z,95705.02
2018-08-24T22:24:42.080Z,95703.25
2018-08-24T22:27:10.691Z,95705.67
2018-08-24T22:29:39.291Z,95705.93
2018-08-24T22:32:07.883Z,95706.16
2018-08-24T22:34:36.425Z,95709.05
2018-08-24T22:37:05.028Z,95705.02
2018-08-24T22:39:33.735Z,95701.58
2018-08-24T22:42:02.324Z,95696.04
2018-08-24T22:44:30.948Z,95696.22
2018-08-24T22:46:59.579Z,95693.30
2018-08-24T22:49:28.183Z,95690.10
2018-08-24T22:51:56.758Z,95688.18
2018-08-24T22:54:25.356Z,95686.75
2018-08-24T22:56:54.000Z,95681.09
2018-08-24T22:59:22.655Z,95675.50
2018-08-24T23:01:51.236Z,95672.41
2018-08-24T23:04:19.808Z,95678.37
2018-08-24T23:06:48.412Z,95673.84
2018-08-24T23:09:17.202Z,95679.91
2018-08-24T23:11:45.810Z,95675.80
2018-08-24T23:14:14.407Z,95674.70
2018-08-24T23:16:42.955Z,95669.39
2018-08-24T23:19:11.552Z,95671.02
2018-08-24T23:21:40.096Z,95666.17
2018-08-24T23:24:08.664Z,95664.96
2018-08-24T23:26:37.227Z,95661.29
2018-08-24T23:29:06.223Z,95665.88
2018-08-24T23:31:34.794Z,95658.88
2018-08-24T23:34:03.385Z,95658.33
2018-08-24T23:36:31.938Z,95657.70
2018-08-24T23:39:00.455Z,95655.62
2018-08-24T23:41:29.047Z,95650.52
2018-08-24T23:43:57.729Z,95644.62
2018-08-24T23:46:26.325Z,95646.55
2018-08-24T23:48:55.699Z,95638.55
2018-08-24T23:51:24.364Z,95643.45
2018-08-24T23:53:52.926Z,95639.45
2018-08-24T23:56:21.477Z,95634.83
2018-08-24T23:58:50.034Z,95632.33
